ロサンゼルス の空港の天気 - METARとTAF

ロサンゼルス国際空港 ( KLAX / LAX ) - アメリカ カリフォルニア州ロサンゼルス
飛行場実況気象(Metar)
観測時間05/28 15:53 PDT (05/28 22:53 UTC)
風向・風速西 6m/s
視程10km以上
天気現象
全天の4割程度の雲 雲底高度 580m
全天の8割程度の雲 雲底高度 1310m
気温19.4℃
湿度63%
気圧1012.9hPa
METARKLAX 282253Z 26012KT 10SM SCT019 BKN043 19/12 A2991 RMK AO2 SLP129 T01940122
過去の天気等 Google飛行場航空写真 Wunderground天気予報

過去48時間のMETAR

飛行場予報(TAF)
発表時間: 5/28 14:11 PDT (5/28 21:11 UTC)
予報対象時間: 28日14時 PDT ~ 29日17時 PDT
風向・風速西 6m/s
視程10km以上
全天の4割程度の雲 雲底高度 670m
全天の8割程度の雲 雲底高度 1070m
28日20時 PDT から
風向・風速西 5m/s
視程10km以上
全天の8割程度の雲 雲底高度 760m
29日1時 PDT から
風向・風速西北西 3m/s
視程10km以上
全天を覆う雲 雲底高度 550m
29日7時 PDT から
風向・風速北北西 5m/s
視程10km以上
全天の8割程度の雲 雲底高度 670m
29日11時 PDT から
風向・風速西 6m/s
視程10km以上
なし
29日13時 PDT から
風向・風速西 8m/s
視程10km以上
なし
KLAX 282111Z 2821/2924 26011KT P6SM SCT022 BKN035
FM290300 27010KT P6SM BKN025
FM290800 29005KT P6SM OVC018
FM291400 33009KT P6SM BKN022
FM291800 26011KT P6SM SKC
FM292000 26015KT P6SM SKC